sensor_id;sensor_type;location;lat;lon;timestamp;pressure;altitude;pressure_sealevel;temperature;humidity
7050;BME280;22263;52.260;10.548;2023-08-24T00:01:09;100712.81;;;20.02;100.00
7050;BME280;22263;52.260;10.548;2023-08-24T00:03:40;100713.59;;;20.03;100.00
7050;BME280;22263;52.260;10.548;2023-08-24T00:06:10;100716.56;;;19.96;100.00
7050;BME280;22263;52.260;10.548;2023-08-24T00:08:40;100711.72;;;19.96;100.00
7050;BME280;22263;52.260;10.548;2023-08-24T00:11:13;100710.66;;;19.90;100.00
7050;BME280;22263;52.260;10.548;2023-08-24T00:13:45;100720.16;;;19.80;100.00
7050;BME280;22263;52.260;10.548;2023-08-24T00:16:16;100712.78;;;19.86;100.00
7050;BME280;22263;52.260;10.548;2023-08-24T00:18:46;100709.53;;;19.88;100.00
7050;BME280;22263;52.260;10.548;2023-08-24T00:21:16;100699.09;;;19.88;100.00
7050;BME280;22263;52.260;10.548;2023-08-24T00:23:50;100711.56;;;19.87;100.00
7050;BME280;22263;52.260;10.548;2023-08-24T00:26:23;100704.63;;;19.92;100.00
7050;BME280;22263;52.260;10.548;2023-08-24T00:28:54;100706.38;;;19.86;100.00
7050;BME280;22263;52.260;10.548;2023-08-24T00:31:24;100712.16;;;19.79;100.00
7050;BME280;22263;52.260;10.548;2023-08-24T00:33:54;100710.56;;;19.78;100.00
7050;BME280;22263;52.260;10.548;2023-08-24T00:36:24;100701.81;;;19.76;100.00
7050;BME280;22263;52.260;10.548;2023-08-24T00:38:54;100709.06;;;19.73;100.00
7050;BME280;22263;52.260;10.548;2023-08-24T00:41:27;100705.13;;;19.71;100.00
7050;BME280;22263;52.260;10.548;2023-08-24T00:43:57;100709.16;;;19.70;100.00
7050;BME280;22263;52.260;10.548;2023-08-24T00:46:30;100712.31;;;19.72;100.00
7050;BME280;22263;52.260;10.548;2023-08-24T00:49:00;100715.19;;;19.68;100.00
7050;BME280;22263;52.260;10.548;2023-08-24T00:51:32;100709.69;;;19.65;100.00
7050;BME280;22263;52.260;10.548;2023-08-24T00:54:04;100710.03;;;19.67;100.00
7050;BME280;22263;52.260;10.548;2023-08-24T00:56:37;100710.75;;;19.71;100.00
7050;BME280;22263;52.260;10.548;2023-08-24T00:59:07;100703.47;;;19.73;100.00
7050;BME280;22263;52.260;10.548;2023-08-24T01:01:39;100713.91;;;19.73;100.00
7050;BME280;22263;52.260;10.548;2023-08-24T01:04:11;100708.28;;;19.73;100.00
7050;BME280;22263;52.260;10.548;2023-08-24T01:06:42;100709.16;;;19.70;100.00
7050;BME280;22263;52.260;10.548;2023-08-24T01:09:12;100708.38;;;19.69;100.00
7050;BME280;22263;52.260;10.548;2023-08-24T01:11:54;100708.00;;;19.67;100.00
7050;BME280;22263;52.260;10.548;2023-08-24T01:14:39;100700.56;;;19.61;100.00
7050;BME280;22263;52.260;10.548;2023-08-24T01:17:14;100696.69;;;19.54;100.00
7050;BME280;22263;52.260;10.548;2023-08-24T01:19:46;100701.13;;;19.52;100.00
7050;BME280;22263;52.260;10.548;2023-08-24T01:22:32;100699.91;;;19.53;100.00
7050;BME280;22263;52.260;10.548;2023-08-24T01:25:06;100696.31;;;19.52;100.00
7050;BME280;22263;52.260;10.548;2023-08-24T01:27:44;100701.22;;;19.48;100.00
7050;BME280;22263;52.260;10.548;2023-08-24T01:30:17;100707.03;;;19.38;100.00
7050;BME280;22263;52.260;10.548;2023-08-24T01:32:49;100708.13;;;19.24;100.00
7050;BME280;22263;52.260;10.548;2023-08-24T01:35:19;100711.78;;;19.21;100.00
7050;BME280;22263;52.260;10.548;2023-08-24T01:37:50;100717.41;;;19.21;100.00
7050;BME280;22263;52.260;10.548;2023-08-24T01:40:26;100706.97;;;19.22;100.00
7050;BME280;22263;52.260;10.548;2023-08-24T01:43:07;100716.19;;;19.22;100.00
7050;BME280;22263;52.260;10.548;2023-08-24T01:45:41;100710.78;;;19.31;100.00
7050;BME280;22263;52.260;10.548;2023-08-24T01:48:13;100708.13;;;19.24;100.00
7050;BME280;22263;52.260;10.548;2023-08-24T01:50:44;100708.50;;;19.26;100.00
7050;BME280;22263;52.260;10.548;2023-08-24T01:53:22;100708.63;;;19.19;100.00
7050;BME280;22263;52.260;10.548;2023-08-24T01:55:53;100709.38;;;19.23;100.00
7050;BME280;22263;52.260;10.548;2023-08-24T01:58:27;100712.66;;;19.18;100.00
7050;BME280;22263;52.260;10.548;2023-08-24T02:01:01;100711.00;;;19.21;100.00
7050;BME280;22263;52.260;10.548;2023-08-24T02:03:37;100702.38;;;19.31;100.00
7050;BME280;22263;52.260;10.548;2023-08-24T02:09:45;100700.56;;;19.21;100.00
7050;BME280;22263;52.260;10.548;2023-08-24T02:12:16;100696.59;;;19.18;100.00
7050;BME280;22263;52.260;10.548;2023-08-24T02:14:50;100695.75;;;19.22;100.00
7050;BME280;22263;52.260;10.548;2023-08-24T02:17:30;100702.47;;;19.08;100.00
7050;BME280;22263;52.260;10.548;2023-08-24T02:20:35;100699.16;;;19.13;100.00
7050;BME280;22263;52.260;10.548;2023-08-24T02:23:36;100695.09;;;19.14;100.00
7050;BME280;22263;52.260;10.548;2023-08-24T02:26:09;100690.78;;;19.09;100.00
7050;BME280;22263;52.260;10.548;2023-08-24T02:31:37;100690.59;;;19.00;100.00
7050;BME280;22263;52.260;10.548;2023-08-24T02:34:08;100690.06;;;18.86;100.00
7050;BME280;22263;52.260;10.548;2023-08-24T02:36:38;100687.06;;;18.96;100.00
7050;BME280;22263;52.260;10.548;2023-08-24T02:39:09;100673.56;;;18.91;100.00
7050;BME280;22263;52.260;10.548;2023-08-24T02:41:39;100678.16;;;18.82;100.00
7050;BME280;22263;52.260;10.548;2023-08-24T02:44:09;100676.19;;;18.59;100.00
7050;BME280;22263;52.260;10.548;2023-08-24T02:46:44;100686.34;;;18.72;100.00
7050;BME280;22263;52.260;10.548;2023-08-24T02:49:17;100683.78;;;18.58;100.00
7050;BME280;22263;52.260;10.548;2023-08-24T02:51:48;100679.22;;;18.68;100.00
7050;BME280;22263;52.260;10.548;2023-08-24T02:54:18;100679.78;;;18.59;100.00
7050;BME280;22263;52.260;10.548;2023-08-24T02:56:49;100684.09;;;18.64;100.00
7050;BME280;22263;52.260;10.548;2023-08-24T02:59:27;100679.63;;;18.66;100.00
7050;BME280;22263;52.260;10.548;2023-08-24T03:02:00;100673.31;;;18.62;100.00
7050;BME280;22263;52.260;10.548;2023-08-24T03:04:31;100667.94;;;18.71;100.00
7050;BME280;22263;52.260;10.548;2023-08-24T03:07:01;100667.59;;;18.69;100.00
7050;BME280;22263;52.260;10.548;2023-08-24T03:09:35;100664.19;;;18.58;100.00
7050;BME280;22263;52.260;10.548;2023-08-24T03:12:05;100661.25;;;18.65;100.00
7050;BME280;22263;52.260;10.548;2023-08-24T03:14:35;100663.19;;;18.68;100.00
7050;BME280;22263;52.260;10.548;2023-08-24T03:17:08;100662.47;;;18.64;100.00
7050;BME280;22263;52.260;10.548;2023-08-24T03:19:38;100663.56;;;18.47;100.00
7050;BME280;22263;52.260;10.548;2023-08-24T03:22:09;100665.22;;;18.45;100.00
7050;BME280;22263;52.260;10.548;2023-08-24T03:24:39;100664.44;;;18.44;100.00
7050;BME280;22263;52.260;10.548;2023-08-24T03:27:09;100661.69;;;18.41;100.00
7050;BME280;22263;52.260;10.548;2023-08-24T03:29:40;100665.34;;;18.38;100.00
7050;BME280;22263;52.260;10.548;2023-08-24T03:32:12;100664.78;;;18.23;100.00
7050;BME280;22263;52.260;10.548;2023-08-24T03:34:43;100658.47;;;18.19;100.00
7050;BME280;22263;52.260;10.548;2023-08-24T03:37:13;100667.00;;;18.35;100.00
7050;BME280;22263;52.260;10.548;2023-08-24T03:39:43;100671.72;;;18.38;100.00
7050;BME280;22263;52.260;10.548;2023-08-24T03:42:13;100659.81;;;18.34;100.00
7050;BME280;22263;52.260;10.548;2023-08-24T03:44:43;100653.34;;;18.37;100.00
7050;BME280;22263;52.260;10.548;2023-08-24T03:47:16;100651.34;;;18.14;100.00
7050;BME280;22263;52.260;10.548;2023-08-24T03:49:46;100654.59;;;18.13;100.00
7050;BME280;22263;52.260;10.548;2023-08-24T03:52:16;100654.59;;;18.13;100.00
7050;BME280;22263;52.260;10.548;2023-08-24T03:54:47;100661.16;;;18.03;100.00
7050;BME280;22263;52.260;10.548;2023-08-24T03:57:24;100671.13;;;18.04;100.00
7050;BME280;22263;52.260;10.548;2023-08-24T03:59:54;100667.97;;;18.02;100.00
7050;BME280;22263;52.260;10.548;2023-08-24T04:02:27;100665.97;;;18.02;100.00
7050;BME280;22263;52.260;10.548;2023-08-24T04:04:58;100666.84;;;17.96;100.00
7050;BME280;22263;52.260;10.548;2023-08-24T04:07:28;100662.84;;;17.97;100.00
7050;BME280;22263;52.260;10.548;2023-08-24T04:09:59;100672.94;;;17.91;100.00
7050;BME280;22263;52.260;10.548;2023-08-24T04:12:29;100663.34;;;17.92;100.00
7050;BME280;22263;52.260;10.548;2023-08-24T04:15:00;100658.47;;;17.96;100.00
7050;BME280;22263;52.260;10.548;2023-08-24T04:17:34;100659.16;;;18.03;100.00
7050;BME280;22263;52.260;10.548;2023-08-24T04:20:09;100663.34;;;17.92;100.00
7050;BME280;22263;52.260;10.548;2023-08-24T04:22:39;100674.22;;;17.86;100.00
7050;BME280;22263;52.260;10.548;2023-08-24T04:25:09;100678.22;;;17.85;100.00
7050;BME280;22263;52.260;10.548;2023-08-24T04:27:40;100681.47;;;17.83;100.00
7050;BME280;22263;52.260;10.548;2023-08-24T04:30:10;100678.47;;;17.94;100.00
7050;BME280;22263;52.260;10.548;2023-08-24T04:32:43;100676.84;;;17.97;100.00
7050;BME280;22263;52.260;10.548;2023-08-24T04:35:14;100683.81;;;18.12;100.00
7050;BME280;22263;52.260;10.548;2023-08-24T04:37:44;100685.13;;;18.04;100.00
7050;BME280;22263;52.260;10.548;2023-08-24T04:40:14;100679.22;;;17.98;100.00
7050;BME280;22263;52.260;10.548;2023-08-24T04:42:44;100689.97;;;18.00;100.00
7050;BME280;22263;52.260;10.548;2023-08-24T04:45:16;100688.03;;;17.97;100.00
7050;BME280;22263;52.260;10.548;2023-08-24T04:47:51;100695.72;;;17.93;100.00
7050;BME280;22263;52.260;10.548;2023-08-24T04:50:22;100707.78;;;17.86;100.00
7050;BME280;22263;52.260;10.548;2023-08-24T04:52:52;100708.38;;;17.74;100.00
7050;BME280;22263;52.260;10.548;2023-08-24T04:55:22;100703.25;;;17.69;100.00
7050;BME280;22263;52.260;10.548;2023-08-24T04:57:53;100708.78;;;17.72;100.00
7050;BME280;22263;52.260;10.548;2023-08-24T05:00:23;100711.13;;;17.77;100.00
7050;BME280;22263;52.260;10.548;2023-08-24T05:02:55;100704.19;;;17.85;100.00
7050;BME280;22263;52.260;10.548;2023-08-24T05:05:25;100695.38;;;17.87;100.00
7050;BME280;22263;52.260;10.548;2023-08-24T05:07:55;100697.91;;;18.05;100.00
7050;BME280;22263;52.260;10.548;2023-08-24T05:10:30;100694.38;;;18.01;100.00
7050;BME280;22263;52.260;10.548;2023-08-24T05:13:01;100698.63;;;18.09;100.00
7050;BME280;22263;52.260;10.548;2023-08-24T05:15:31;100696.59;;;18.13;100.00
7050;BME280;22263;52.260;10.548;2023-08-24T05:18:04;100702.97;;;18.37;100.00
7050;BME280;22263;52.260;10.548;2023-08-24T05:20:37;100699.09;;;18.54;100.00
7050;BME280;22263;52.260;10.548;2023-08-24T05:23:07;100707.38;;;18.81;100.00
7050;BME280;22263;52.260;10.548;2023-08-24T05:25:37;100689.06;;;18.96;100.00
7050;BME280;22263;52.260;10.548;2023-08-24T05:28:08;100698.28;;;19.16;100.00
7050;BME280;22263;52.260;10.548;2023-08-24T05:30:40;100703.44;;;19.37;100.00
7050;BME280;22263;52.260;10.548;2023-08-24T05:33:13;100702.84;;;19.66;100.00
7050;BME280;22263;52.260;10.548;2023-08-24T05:35:49;100702.06;;;19.81;100.00
7050;BME280;22263;52.260;10.548;2023-08-24T05:38:25;100691.66;;;19.98;100.00
7050;BME280;22263;52.260;10.548;2023-08-24T05:40:56;100697.44;;;20.23;100.00
7050;BME280;22263;52.260;10.548;2023-08-24T05:43:26;100693.56;;;20.50;100.00
7050;BME280;22263;52.260;10.548;2023-08-24T05:45:59;100689.31;;;20.74;100.00
7050;BME280;22263;52.260;10.548;2023-08-24T05:48:32;100686.94;;;21.01;100.00
7050;BME280;22263;52.260;10.548;2023-08-24T05:51:02;100675.81;;;21.10;100.00
7050;BME280;22263;52.260;10.548;2023-08-24T05:53:33;100682.97;;;21.15;100.00
7050;BME280;22263;52.260;10.548;2023-08-24T05:56:03;100672.47;;;21.15;100.00
7050;BME280;22263;52.260;10.548;2023-08-24T05:58:33;100669.03;;;21.24;100.00
7050;BME280;22263;52.260;10.548;2023-08-24T06:01:03;100674.75;;;21.20;100.00
7050;BME280;22263;52.260;10.548;2023-08-24T06:03:38;100671.19;;;21.33;100.00
7050;BME280;22263;52.260;10.548;2023-08-24T06:06:09;100669.25;;;21.29;100.00
7050;BME280;22263;52.260;10.548;2023-08-24T06:08:39;100676.44;;;21.18;100.00
7050;BME280;22263;52.260;10.548;2023-08-24T06:11:09;100677.91;;;21.22;100.00
7050;BME280;22263;52.260;10.548;2023-08-24T06:13:39;100679.03;;;21.25;100.00
7050;BME280;22263;52.260;10.548;2023-08-24T06:16:10;100680.28;;;21.24;100.00
7050;BME280;22263;52.260;10.548;2023-08-24T06:18:43;100684.91;;;21.30;100.00
7050;BME280;22263;52.260;10.548;2023-08-24T06:21:19;100676.47;;;20.73;100.00
7050;BME280;22263;52.260;10.548;2023-08-24T06:23:49;100687.19;;;20.78;100.00
7050;BME280;22263;52.260;10.548;2023-08-24T06:26:19;100668.81;;;21.02;100.00
7050;BME280;22263;52.260;10.548;2023-08-24T06:28:49;100672.41;;;20.90;100.00
7050;BME280;22263;52.260;10.548;2023-08-24T06:31:18;100653.72;;;20.96;100.00
7050;BME280;22263;52.260;10.548;2023-08-24T06:33:51;100660.00;;;21.16;100.00
7050;BME280;22263;52.260;10.548;2023-08-24T06:36:22;100646.28;;;21.31;100.00
7050;BME280;22263;52.260;10.548;2023-08-24T06:38:52;100649.00;;;21.35;100.00
7050;BME280;22263;52.260;10.548;2023-08-24T06:41:25;100650.13;;;21.24;100.00
7050;BME280;22263;52.260;10.548;2023-08-24T06:43:55;100653.94;;;21.18;100.00
7050;BME280;22263;52.260;10.548;2023-08-24T06:46:25;100645.06;;;21.19;100.00
7050;BME280;22263;52.260;10.548;2023-08-24T06:48:58;100632.59;;;21.33;100.00
7050;BME280;22263;52.260;10.548;2023-08-24T06:51:28;100640.81;;;20.99;100.00
7050;BME280;22263;52.260;10.548;2023-08-24T06:53:59;100638.16;;;20.79;100.00
7050;BME280;22263;52.260;10.548;2023-08-24T06:56:29;100641.06;;;21.04;100.00
7050;BME280;22263;52.260;10.548;2023-08-24T06:58:59;100636.72;;;21.16;100.00
7050;BME280;22263;52.260;10.548;2023-08-24T07:01:29;100629.19;;;21.25;100.00
7050;BME280;22263;52.260;10.548;2023-08-24T07:04:02;100626.91;;;21.20;100.00
7050;BME280;22263;52.260;10.548;2023-08-24T07:06:33;100625.00;;;21.17;100.00
7050;BME280;22263;52.260;10.548;2023-08-24T07:09:03;100617.47;;;21.14;100.00
7050;BME280;22263;52.260;10.548;2023-08-24T07:11:34;100623.94;;;20.99;100.00
7050;BME280;22263;52.260;10.548;2023-08-24T07:14:04;100624.22;;;21.29;100.00
7050;BME280;22263;52.260;10.548;2023-08-24T07:16:34;100617.59;;;21.49;100.00
7050;BME280;22263;52.260;10.548;2023-08-24T07:19:07;100614.03;;;21.48;100.00
7050;BME280;22263;52.260;10.548;2023-08-24T07:21:37;100610.16;;;21.55;100.00
7050;BME280;22263;52.260;10.548;2023-08-24T07:24:07;100608.72;;;21.63;100.00
7050;BME280;22263;52.260;10.548;2023-08-24T07:26:37;100591.22;;;21.93;100.00
7050;BME280;22263;52.260;10.548;2023-08-24T07:29:06;100592.91;;;22.03;100.00
7050;BME280;22263;52.260;10.548;2023-08-24T07:31:36;100590.50;;;22.14;100.00
7050;BME280;22263;52.260;10.548;2023-08-24T07:34:09;100604.38;;;22.09;100.00
7050;BME280;22263;52.260;10.548;2023-08-24T07:36:40;100600.34;;;22.10;100.00
7050;BME280;22263;52.260;10.548;2023-08-24T07:39:11;100606.06;;;22.19;100.00
7050;BME280;22263;52.260;10.548;2023-08-24T07:41:42;100608.59;;;22.26;100.00
7050;BME280;22263;52.260;10.548;2023-08-24T07:44:12;100605.69;;;22.30;100.00
7050;BME280;22263;52.260;10.548;2023-08-24T07:46:42;100615.81;;;22.27;100.00
7050;BME280;22263;52.260;10.548;2023-08-24T07:49:14;100614.53;;;22.41;100.00
7050;BME280;22263;52.260;10.548;2023-08-24T07:51:44;100616.47;;;23.09;100.00
7050;BME280;22263;52.260;10.548;2023-08-24T07:54:14;100609.88;;;23.43;100.00
7050;BME280;22263;52.260;10.548;2023-08-24T07:56:44;100612.13;;;23.88;100.00
7050;BME280;22263;52.260;10.548;2023-08-24T07:59:14;100602.44;;;24.07;100.00
7050;BME280;22263;52.260;10.548;2023-08-24T08:01:44;100609.38;;;24.52;100.00
7050;BME280;22263;52.260;10.548;2023-08-24T08:04:17;100606.22;;;25.55;100.00
7050;BME280;22263;52.260;10.548;2023-08-24T08:06:47;100594.81;;;26.21;100.00
7050;BME280;22263;52.260;10.548;2023-08-24T08:09:17;100587.31;;;26.86;100.00
7050;BME280;22263;52.260;10.548;2023-08-24T08:11:46;100585.94;;;27.25;100.00
7050;BME280;22263;52.260;10.548;2023-08-24T08:14:16;100585.56;;;27.67;100.00
7050;BME280;22263;52.260;10.548;2023-08-24T08:16:47;100576.38;;;27.58;98.45
7050;BME280;22263;52.260;10.548;2023-08-24T08:19:19;100577.03;;;27.32;100.00
7050;BME280;22263;52.260;10.548;2023-08-24T08:21:49;100569.84;;;28.99;91.61
7050;BME280;22263;52.260;10.548;2023-08-24T08:24:19;100566.53;;;30.22;81.14
7050;BME280;22263;52.260;10.548;2023-08-24T08:26:52;100563.25;;;30.46;72.80
7050;BME280;22263;52.260;10.548;2023-08-24T08:29:24;100566.75;;;31.17;67.74
7050;BME280;22263;52.260;10.548;2023-08-24T08:31:54;100564.63;;;30.73;65.98
7050;BME280;22263;52.260;10.548;2023-08-24T08:34:26;100565.19;;;30.07;75.08
7050;BME280;22263;52.260;10.548;2023-08-24T08:36:56;100563.09;;;30.83;71.26
7050;BME280;22263;52.260;10.548;2023-08-24T08:39:26;100563.84;;;31.62;63.30
7050;BME280;22263;52.260;10.548;2023-08-24T08:41:56;100559.22;;;31.25;67.04
7050;BME280;22263;52.260;10.548;2023-08-24T08:44:30;100557.84;;;32.45;58.71
7050;BME280;22263;52.260;10.548;2023-08-24T08:47:00;100558.63;;;33.22;55.36
7050;BME280;22263;52.260;10.548;2023-08-24T08:49:34;100563.78;;;32.47;56.36
7050;BME280;22263;52.260;10.548;2023-08-24T08:52:05;100563.94;;;33.07;55.30
7050;BME280;22263;52.260;10.548;2023-08-24T08:54:35;100556.16;;;33.37;49.77
7050;BME280;22263;52.260;10.548;2023-08-24T08:57:05;100562.09;;;33.39;49.83
7050;BME280;22263;52.260;10.548;2023-08-24T08:59:36;100557.41;;;33.42;51.59
7050;BME280;22263;52.260;10.548;2023-08-24T09:02:11;100553.81;;;33.00;53.70
7050;BME280;22263;52.260;10.548;2023-08-24T09:04:45;100556.38;;;33.39;49.30
7050;BME280;22263;52.260;10.548;2023-08-24T09:07:15;100550.72;;;34.44;46.73
7050;BME280;22263;52.260;10.548;2023-08-24T09:09:47;100554.28;;;34.12;49.46
7050;BME280;22263;52.260;10.548;2023-08-24T09:12:17;100541.25;;;34.49;48.15
7050;BME280;22263;52.260;10.548;2023-08-24T09:14:47;100539.00;;;34.61;45.68
7050;BME280;22263;52.260;10.548;2023-08-24T09:17:20;100545.56;;;32.91;51.57
7050;BME280;22263;52.260;10.548;2023-08-24T09:19:58;100537.34;;;33.90;49.34
7050;BME280;22263;52.260;10.548;2023-08-24T09:22:27;100533.97;;;34.48;49.02
7050;BME280;22263;52.260;10.548;2023-08-24T09:25:05;100546.06;;;34.59;48.35
7050;BME280;22263;52.260;10.548;2023-08-24T09:27:35;100535.84;;;35.54;46.09
7050;BME280;22263;52.260;10.548;2023-08-24T09:30:06;100539.19;;;35.45;44.80
7050;BME280;22263;52.260;10.548;2023-08-24T09:32:36;100544.50;;;36.33;41.86
7050;BME280;22263;52.260;10.548;2023-08-24T09:35:10;100535.66;;;36.18;41.54
7050;BME280;22263;52.260;10.548;2023-08-24T09:37:40;100544.84;;;36.03;42.97
7050;BME280;22263;52.260;10.548;2023-08-24T09:40:12;100548.38;;;35.57;43.92
7050;BME280;22263;52.260;10.548;2023-08-24T09:42:43;100536.88;;;35.83;42.73
7050;BME280;22263;52.260;10.548;2023-08-24T09:45:14;100540.50;;;36.36;41.74
7050;BME280;22263;52.260;10.548;2023-08-24T09:47:49;100544.53;;;35.94;40.94
7050;BME280;22263;52.260;10.548;2023-08-24T09:50:25;100539.41;;;35.47;41.83
7050;BME280;22263;52.260;10.548;2023-08-24T09:52:57;100533.00;;;34.02;48.10
7050;BME280;22263;52.260;10.548;2023-08-24T09:55:33;100514.44;;;34.78;43.89
7050;BME280;22263;52.260;10.548;2023-08-24T09:58:09;100514.66;;;36.44;41.03
7050;BME280;22263;52.260;10.548;2023-08-24T10:00:39;100520.84;;;37.72;39.04
7050;BME280;22263;52.260;10.548;2023-08-24T10:03:10;100513.91;;;38.55;37.44
7050;BME280;22263;52.260;10.548;2023-08-24T10:05:44;100502.53;;;36.45;40.71
7050;BME280;22263;52.260;10.548;2023-08-24T10:08:27;100497.53;;;36.12;41.01
7050;BME280;22263;52.260;10.548;2023-08-24T10:10:58;100501.63;;;37.05;41.04
7050;BME280;22263;52.260;10.548;2023-08-24T10:13:36;100493.88;;;38.06;39.07
7050;BME280;22263;52.260;10.548;2023-08-24T10:16:09;100486.53;;;37.40;39.46
7050;BME280;22263;52.260;10.548;2023-08-24T10:18:41;100482.78;;;38.32;37.48
7050;BME280;22263;52.260;10.548;2023-08-24T10:21:14;100474.84;;;36.76;40.22
7050;BME280;22263;52.260;10.548;2023-08-24T10:23:45;100479.34;;;37.54;38.32
7050;BME280;22263;52.260;10.548;2023-08-24T10:26:16;100465.31;;;37.59;38.97
7050;BME280;22263;52.260;10.548;2023-08-24T10:28:47;100467.38;;;37.50;38.56
7050;BME280;22263;52.260;10.548;2023-08-24T10:31:19;100461.50;;;37.64;37.52
7050;BME280;22263;52.260;10.548;2023-08-24T10:33:50;100456.31;;;37.41;37.87
7050;BME280;22263;52.260;10.548;2023-08-24T10:36:23;100454.44;;;36.74;39.21
7050;BME280;22263;52.260;10.548;2023-08-24T10:38:55;100450.75;;;35.59;40.16
7050;BME280;22263;52.260;10.548;2023-08-24T10:41:26;100440.63;;;36.05;40.01
7050;BME280;22263;52.260;10.548;2023-08-24T10:44:04;100446.19;;;35.90;40.62
7050;BME280;22263;52.260;10.548;2023-08-24T10:46:37;100446.00;;;36.97;38.45
7050;BME280;22263;52.260;10.548;2023-08-24T10:49:07;100431.28;;;35.25;42.54
7050;BME280;22263;52.260;10.548;2023-08-24T10:51:45;100434.19;;;36.87;39.00
7050;BME280;22263;52.260;10.548;2023-08-24T10:54:15;100419.00;;;37.43;38.29
7050;BME280;22263;52.260;10.548;2023-08-24T10:56:52;100411.91;;;36.67;38.84
7050;BME280;22263;52.260;10.548;2023-08-24T10:59:25;100411.44;;;35.88;40.88
7050;BME280;22263;52.260;10.548;2023-08-24T11:02:18;100404.91;;;35.08;42.68
7050;BME280;22263;52.260;10.548;2023-08-24T11:05:04;100404.63;;;34.67;44.14
7050;BME280;22263;52.260;10.548;2023-08-24T11:07:47;100405.81;;;35.69;40.95
7050;BME280;22263;52.260;10.548;2023-08-24T11:10:18;100421.72;;;35.83;38.94
7050;BME280;22263;52.260;10.548;2023-08-24T11:13:10;100419.97;;;35.14;39.65
7050;BME280;22263;52.260;10.548;2023-08-24T11:15:42;100425.66;;;34.05;42.28
7050;BME280;22263;52.260;10.548;2023-08-24T11:18:21;100418.53;;;35.08;39.68
7050;BME280;22263;52.260;10.548;2023-08-24T11:20:53;100419.84;;;34.30;39.31
7050;BME280;22263;52.260;10.548;2023-08-24T11:23:26;100412.63;;;34.42;41.03
7050;BME280;22263;52.260;10.548;2023-08-24T11:25:57;100413.16;;;33.22;42.48
7050;BME280;22263;52.260;10.548;2023-08-24T11:28:29;100409.06;;;33.61;42.33
7050;BME280;22263;52.260;10.548;2023-08-24T11:30:59;100416.81;;;33.66;42.53
7050;BME280;22263;52.260;10.548;2023-08-24T11:33:31;100421.34;;;33.37;41.89
7050;BME280;22263;52.260;10.548;2023-08-24T11:36:03;100411.28;;;33.49;43.01
7050;BME280;22263;52.260;10.548;2023-08-24T11:38:41;100406.22;;;33.37;43.11
7050;BME280;22263;52.260;10.548;2023-08-24T11:41:12;100406.16;;;33.42;43.62
7050;BME280;22263;52.260;10.548;2023-08-24T11:43:43;100413.47;;;33.62;43.21
7050;BME280;22263;52.260;10.548;2023-08-24T11:46:15;100406.81;;;33.72;43.22
7050;BME280;22263;52.260;10.548;2023-08-24T11:48:46;100399.91;;;34.37;41.68
7050;BME280;22263;52.260;10.548;2023-08-24T11:51:16;100387.88;;;34.84;40.39
7050;BME280;22263;52.260;10.548;2023-08-24T11:54:06;100400.44;;;34.36;42.86
7050;BME280;22263;52.260;10.548;2023-08-24T11:56:41;100388.56;;;35.42;38.27
7050;BME280;22263;52.260;10.548;2023-08-24T11:59:11;100382.84;;;34.26;40.81
7050;BME280;22263;52.260;10.548;2023-08-24T12:01:42;100372.41;;;35.00;38.33
7050;BME280;22263;52.260;10.548;2023-08-24T12:04:13;100367.09;;;34.91;39.05
7050;BME280;22263;52.260;10.548;2023-08-24T12:06:43;100353.25;;;34.89;39.76
7050;BME280;22263;52.260;10.548;2023-08-24T12:09:15;100354.28;;;34.47;41.40
7050;BME280;22263;52.260;10.548;2023-08-24T12:11:45;100341.97;;;35.44;39.17
7050;BME280;22263;52.260;10.548;2023-08-24T12:14:18;100334.13;;;35.92;37.57
7050;BME280;22263;52.260;10.548;2023-08-24T12:16:48;100333.44;;;35.52;38.98
7050;BME280;22263;52.260;10.548;2023-08-24T12:19:21;100329.81;;;35.38;38.74
7050;BME280;22263;52.260;10.548;2023-08-24T12:21:52;100324.56;;;35.97;37.50
7050;BME280;22263;52.260;10.548;2023-08-24T12:24:24;100328.22;;;36.59;36.16
7050;BME280;22263;52.260;10.548;2023-08-24T12:26:55;100321.00;;;35.70;38.45
7050;BME280;22263;52.260;10.548;2023-08-24T12:29:26;100312.56;;;36.26;38.47
7050;BME280;22263;52.260;10.548;2023-08-24T12:31:57;100310.53;;;36.14;38.64
7050;BME280;22263;52.260;10.548;2023-08-24T12:34:26;100305.19;;;35.50;38.26
7050;BME280;22263;52.260;10.548;2023-08-24T12:36:56;100307.31;;;36.38;37.58
7050;BME280;22263;52.260;10.548;2023-08-24T12:39:35;100294.13;;;36.50;37.25
7050;BME280;22263;52.260;10.548;2023-08-24T12:42:05;100298.31;;;36.21;37.20
7050;BME280;22263;52.260;10.548;2023-08-24T12:44:35;100289.66;;;36.00;38.03
7050;BME280;22263;52.260;10.548;2023-08-24T12:47:05;100284.25;;;35.97;38.45
7050;BME280;22263;52.260;10.548;2023-08-24T12:49:35;100264.47;;;36.42;37.00
7050;BME280;22263;52.260;10.548;2023-08-24T12:52:04;100268.56;;;36.47;37.65
7050;BME280;22263;52.260;10.548;2023-08-24T12:54:37;100259.66;;;36.37;37.76
7050;BME280;22263;52.260;10.548;2023-08-24T12:57:07;100261.19;;;36.38;38.10
7050;BME280;22263;52.260;10.548;2023-08-24T12:59:36;100264.75;;;36.52;37.39
7050;BME280;22263;52.260;10.548;2023-08-24T13:02:06;100251.56;;;35.73;38.96
7050;BME280;22263;52.260;10.548;2023-08-24T13:04:38;100251.09;;;36.24;38.07
7050;BME280;22263;52.260;10.548;2023-08-24T13:07:08;100246.03;;;35.75;39.18
7050;BME280;22263;52.260;10.548;2023-08-24T13:09:40;100239.09;;;36.61;38.04
7050;BME280;22263;52.260;10.548;2023-08-24T13:12:10;100233.59;;;35.80;38.81
7050;BME280;22263;52.260;10.548;2023-08-24T13:14:40;100226.34;;;36.57;37.51